Time;durP1;ratioP1;P1;durP2;ratioP2;P2;SDS_P1;SDS_P2;PMS_P1;PMS_P2;Temp;Humidity;BMP_temperature;BMP_pressure;BME280_temperature;BME280_humidity;BME280_pressure;Samples;Min_cycle;Max_cycle;Signal;HPM_P1;HPM_P2
2022/05/13 00:01:03;;;;;;;5.32;1.77;;;;;;;9.96;70.04;98115.47;4989329;28;20046;-73
2022/05/13 00:03:30;;;;;;;4.97;1.70;;;;;;;10.01;68.60;98118.09;5006434;28;20138;-73
2022/05/13 00:05:56;;;;;;;7.13;1.55;;;;;;;9.93;69.30;98116.09;5005268;28;20049;-73
2022/05/13 00:08:24;;;;;;;5.80;1.80;;;;;;;9.83;70.43;98114.44;5005593;28;20050;-73
2022/05/13 00:10:49;;;;;;;;;;;;;;;9.82;70.77;98129.22;5004742;28;20073;-74
2022/05/13 00:13:16;;;;;;;6.15;1.80;;;;;;;9.86;70.57;98145.78;5001384;28;20356;-72
2022/05/13 00:15:44;;;;;;;11.50;2.38;;;;;;;9.84;70.59;98128.91;5002831;28;20062;-74
2022/05/13 00:18:11;;;;;;;6.82;1.70;;;;;;;9.78;69.49;98136.41;5005169;28;20060;-73
2022/05/13 00:20:37;;;;;;;5.37;2.00;;;;;;;9.79;69.33;98144.28;5009997;28;20049;-74
2022/05/13 00:23:03;;;;;;;6.38;1.83;;;;;;;9.77;71.04;98148.44;5023153;28;20387;-73
2022/05/13 00:25:33;;;;;;;6.32;1.70;;;;;;;9.79;71.71;98138.03;5027463;28;20049;-73
2022/05/13 00:28:01;;;;;;;8.13;1.80;;;;;;;9.88;71.54;98141.59;5021903;28;20049;-73
2022/05/13 00:30:28;;;;;;;;;;;;;;;9.93;71.39;98149.69;5021742;28;20095;-73
2022/05/13 00:32:54;;;;;;;6.82;2.28;;;;;;;9.98;71.79;98146.00;5024175;28;20395;-74
2022/05/13 00:35:22;;;;;;;7.85;2.42;;;;;;;9.97;70.41;98157.25;5022977;28;20049;-73
2022/05/13 00:37:48;;;;;;;6.32;2.10;;;;;;;9.89;69.80;98148.66;5024861;28;20054;-74
2022/05/13 00:40:15;;;;;;;7.65;2.55;;;;;;;9.85;70.69;98155.09;5025923;28;20049;-73
2022/05/13 00:42:43;;;;;;;7.43;2.70;;;;;;;9.82;71.40;98151.03;5027585;28;20508;-73
2022/05/13 00:45:10;;;;;;;;;;;;;;;9.84;71.55;98154.25;5024545;28;20045;-73
2022/05/13 00:47:36;;;;;;;6.32;2.60;;;;;;;9.88;71.22;98154.47;5005334;28;19967;-73
2022/05/13 00:50:04;;;;;;;7.88;2.50;;;;;;;9.87;71.49;98131.00;5018515;28;20046;-73
2022/05/13 00:52:31;;;;;;;9.07;2.47;;;;;;;9.88;72.25;98135.34;5005000;28;20512;-73
2022/05/13 00:55:03;;;;;;;8.52;2.55;;;;;;;9.89;71.83;98153.34;5003699;28;20057;-74
2022/05/13 00:57:30;;;;;;;6.88;2.15;;;;;;;9.93;71.75;98151.59;5004070;28;20050;-74
2022/05/13 00:59:58;;;;;;;6.70;2.03;;;;;;;9.93;69.71;98167.97;5003543;28;20046;-73
2022/05/13 01:02:24;;;;;;;10.13;2.60;;;;;;;9.87;71.15;98159.09;5002323;28;20057;-74
2022/05/13 01:04:50;;;;;;;5.65;2.30;;;;;;;9.82;71.68;98161.13;5004655;28;20046;-73
2022/05/13 01:07:19;;;;;;;9.38;2.10;;;;;;;9.83;71.58;98174.50;4987311;28;20140;-72
2022/05/13 01:09:49;;;;;;;6.90;2.28;;;;;;;9.82;69.76;98166.59;5005268;28;20127;-73
2022/05/13 01:12:21;;;;;;;7.13;2.05;;;;;;;9.86;71.38;98187.50;5003352;28;20425;-73
2022/05/13 01:14:52;;;;;;;6.25;1.73;;;;;;;9.89;68.96;98172.44;5004117;28;20058;-74
2022/05/13 01:20:16;;;;;;;9.45;2.17;;;;;;;9.82;70.21;98167.41;5005185;28;20057;-73
2022/05/13 01:22:46;;;;;;;5.95;1.73;;;;;;;9.81;70.87;98176.72;5005697;28;20188;-73
2022/05/13 01:25:15;;;;;;;5.53;1.80;;;;;;;9.87;70.42;98170.03;5002656;28;20053;-73
2022/05/13 01:27:43;;;;;;;5.18;1.73;;;;;;;9.86;70.67;98194.91;5004206;28;20045;-74
2022/05/13 01:30:12;;;;;;;4.15;1.55;;;;;;;9.84;70.67;98186.22;5004800;28;20108;-74
2022/05/13 01:32:39;;;;;;;6.55;1.98;;;;;;;9.79;70.33;98193.41;5004029;28;20544;-73
2022/05/13 01:35:06;;;;;;;4.85;1.77;;;;;;;9.79;69.93;98177.03;5005729;28;20068;-74
2022/05/13 01:37:33;;;;;;;5.95;1.60;;;;;;;9.79;68.62;98179.75;5007021;28;20050;-74
2022/05/13 01:40:01;;;;;;;8.75;3.15;;;;;;;9.75;69.65;98178.78;5004116;28;20074;-73
2022/05/13 01:42:30;;;;;;;6.88;1.60;;;;;;;9.78;70.64;98177.34;5004046;28;20042;-73
2022/05/13 01:44:57;;;;;;;7.65;1.73;;;;;;;9.81;69.43;98167.72;5002578;28;20128;-75
2022/05/13 01:47:25;;;;;;;4.97;1.50;;;;;;;9.79;68.12;98181.69;5003953;28;20050;-74
2022/05/13 01:49:50;;;;;;;;;;;;;;;9.76;69.70;98190.50;5015530;28;20508;-73
2022/05/13 01:52:17;;;;;;;3.70;1.50;;;;;;;9.76;68.96;98176.84;5023812;28;20004;-72
2022/05/13 01:54:43;;;;;;;7.95;1.60;;;;;;;9.79;69.05;98187.16;5023765;28;20045;-73
2022/05/13 01:57:10;;;;;;;8.30;1.80;;;;;;;9.83;69.34;98184.59;5017944;28;20052;-73
2022/05/13 01:59:36;;;;;;;;;;;;;;;9.82;67.88;98200.19;5022403;28;20080;-74
2022/05/13 02:02:03;;;;;;;6.25;1.70;;;;;;;9.74;67.86;98176.34;5020511;28;19960;-73
2022/05/13 02:04:29;;;;;;;7.68;2.00;;;;;;;9.72;68.31;98192.22;5022634;28;20057;-73
2022/05/13 02:06:55;;;;;;;9.00;1.77;;;;;;;9.74;68.96;98196.25;5022570;28;20084;-73
2022/05/13 02:09:21;;;;;;;5.18;1.58;;;;;;;9.79;69.04;98189.88;5022912;28;20429;-73
2022/05/13 02:11:48;;;;;;;7.18;1.67;;;;;;;9.81;67.68;98184.09;5021913;28;20203;-73
2022/05/13 02:14:17;;;;;;;4.82;1.60;;;;;;;9.76;68.19;98210.41;5020815;28;20056;-73
2022/05/13 02:16:43;;;;;;;7.35;1.50;;;;;;;9.73;68.34;98193.81;5021985;28;20528;-73
2022/05/13 02:19:10;;;;;;;4.65;1.50;;;;;;;9.72;68.18;98211.31;5009312;28;20057;-73
2022/05/13 02:21:37;;;;;;;9.90;1.73;;;;;;;9.65;67.68;98217.19;5003733;28;20089;-74
2022/05/13 02:24:04;;;;;;;6.57;1.30;;;;;;;9.61;67.73;98216.22;5003577;28;20056;-73
2022/05/13 02:26:30;;;;;;;7.50;1.60;;;;;;;9.58;67.32;98214.09;5002872;28;20053;-73
2022/05/13 02:29:01;;;;;;;6.93;1.90;;;;;;;9.56;68.22;98222.56;5003609;28;20061;-73
2022/05/13 02:31:30;;;;;;;2.95;1.40;;;;;;;9.51;68.57;98212.56;5005483;28;20149;-74
2022/05/13 02:33:56;;;;;;;12.15;2.05;;;;;;;9.59;68.50;98224.69;5006164;28;20056;-74
2022/05/13 02:36:23;;;;;;;5.30;1.40;;;;;;;9.55;66.89;98231.88;5003626;28;20319;-74
2022/05/13 02:38:49;;;;;;;5.80;1.88;;;;;;;9.53;66.84;98212.28;5002397;28;20514;-73
2022/05/13 02:41:15;;;;;;;9.75;1.92;;;;;;;9.50;67.56;98240.97;5001414;28;20060;-74
2022/05/13 02:43:43;;;;;;;6.40;1.70;;;;;;;9.46;68.40;98229.06;5003109;28;20136;-73
2022/05/13 02:46:11;;;;;;;8.32;1.80;;;;;;;9.43;67.99;98226.13;5003231;28;20056;-75
2022/05/13 02:48:38;;;;;;;8.23;2.03;;;;;;;9.38;68.58;98237.16;5016393;28;20073;-73
2022/05/13 02:51:04;;;;;;;;;;;;;;;9.28;68.70;98232.72;5022271;28;20099;-73
2022/05/13 02:53:30;;;;;;;5.63;1.60;;;;;;;9.25;69.05;98230.63;5024087;28;19929;-73
2022/05/13 02:55:56;;;;;;;11.63;2.05;;;;;;;9.27;68.50;98239.31;5019897;28;20516;-74
2022/05/13 02:58:22;;;;;;;8.23;1.73;;;;;;;9.34;68.60;98248.69;5021703;28;20095;-74
2022/05/13 03:00:48;;;;;;;6.18;1.67;;;;;;;9.38;67.55;98270.72;5021844;28;20048;-72
2022/05/13 03:03:14;;;;;;;8.95;1.70;;;;;;;9.34;68.20;98243.25;5020596;28;20064;-74
2022/05/13 03:05:42;;;;;;;6.03;1.80;;;;;;;9.34;67.96;98226.06;5024013;28;20579;-75
2022/05/13 03:08:08;;;;;;;6.88;1.90;;;;;;;9.45;66.48;98245.75;5023502;28;20471;-74
2022/05/13 03:10:37;;;;;;;8.48;1.77;;;;;;;9.51;67.84;98255.44;5024035;28;20045;-74
2022/05/13 03:13:05;;;;;;;7.32;1.70;;;;;;;9.56;67.36;98240.88;5022292;28;20163;-73
2022/05/13 03:15:32;;;;;;;5.95;1.63;;;;;;;9.54;67.21;98248.56;5024504;28;20061;-73
2022/05/13 03:17:58;;;;;;;10.85;1.88;;;;;;;9.50;68.25;98262.81;5014677;28;20108;-72
2022/05/13 03:20:25;;;;;;;7.45;2.03;;;;;;;9.55;67.75;98250.19;5002382;28;20058;-73
2022/05/13 03:22:53;;;;;;;9.50;1.80;;;;;;;9.59;67.64;98260.16;5000543;28;20061;-73
2022/05/13 03:25:20;;;;;;;;;;;;;;;9.63;67.83;98268.56;5006090;28;20038;-73
2022/05/13 03:27:46;;;;;;;9.13;1.95;;;;;;;9.61;68.11;98268.88;5004690;28;20447;-73
2022/05/13 03:30:15;;;;;;;14.52;1.77;;;;;;;9.70;67.19;98270.88;5004065;28;20042;-73
2022/05/13 03:32:42;;;;;;;8.55;1.88;;;;;;;9.65;67.02;98275.31;5006368;28;20886;-73
2022/05/13 03:35:12;;;;;;;9.63;2.50;;;;;;;9.67;67.89;98266.03;5008605;28;20580;-73
2022/05/13 03:37:38;;;;;;;8.60;1.95;;;;;;;9.72;65.75;98264.00;5007189;28;20046;-73
2022/05/13 03:40:07;;;;;;;12.18;2.15;;;;;;;9.67;66.91;98276.94;5005936;28;20566;-73
2022/05/13 03:42:35;;;;;;;9.80;2.03;;;;;;;9.71;66.61;98272.47;5004706;28;20046;-73
2022/05/13 03:45:02;;;;;;;16.65;2.00;;;;;;;9.77;66.98;98282.19;5006626;28;20046;-73
2022/05/13 03:47:29;;;;;;;7.07;1.70;;;;;;;9.82;67.20;98279.34;5032835;28;20049;-73
2022/05/13 03:49:55;;;;;;;7.45;1.70;;;;;;;9.83;66.46;98258.28;5026000;28;20045;-74
2022/05/13 03:52:21;;;;;;;7.85;1.90;;;;;;;9.85;67.26;98280.66;5024268;28;20402;-73
2022/05/13 03:54:47;;;;;;;6.22;1.92;;;;;;;9.88;67.19;98283.56;5026699;28;20119;-73
2022/05/13 03:57:15;;;;;;;7.88;2.00;;;;;;;9.92;67.38;98281.03;5006940;28;20053;-73
2022/05/13 03:59:41;;;;;;;;;;;;;;;9.95;68.16;98287.81;5027859;28;20056;-74
2022/05/13 04:02:07;;;;;;;8.70;1.90;;;;;;;9.85;65.05;98294.31;5039950;28;19925;-76
2022/05/13 04:08:56;;;;;;;10.38;1.95;;;;;;;9.76;66.22;98288.75;5024758;28;20049;-74
2022/05/13 04:10:06;;;;;;;11.20;2.15;;;;;;;9.71;66.25;98306.06;5026911;28;20154;-74
2022/05/13 04:18:04;;;;;;;9.02;1.95;;;;;;;9.74;66.73;98307.34;5003515;28;20196;-74
2022/05/13 04:20:32;;;;;;;7.03;1.90;;;;;;;9.73;66.82;98290.19;5000445;28;20508;-74
2022/05/13 04:22:59;;;;;;;7.05;1.92;;;;;;;9.74;65.26;98321.81;5010098;28;20050;-74
2022/05/13 04:25:26;;;;;;;7.93;1.70;;;;;;;9.82;65.10;98306.63;5011422;28;20068;-74
2022/05/13 04:27:53;;;;;;;9.13;1.65;;;;;;;9.93;63.46;98296.28;5020029;28;20322;-74
2022/05/13 04:30:19;;;;;;;5.22;1.75;;;;;;;9.89;63.21;98311.69;5025963;28;20049;-75
2022/05/13 04:32:45;;;;;;;7.65;1.70;;;;;;;9.93;64.89;98308.03;5013171;28;20073;-74
2022/05/13 04:35:11;;;;;;;5.68;1.58;;;;;;;9.98;63.45;98301.63;5001458;28;20161;-74
2022/05/13 04:37:38;;;;;;;9.05;2.20;;;;;;;9.87;63.08;98317.44;5002464;28;20386;-74
2022/05/13 04:40:06;;;;;;;13.63;2.00;;;;;;;9.91;63.80;98309.44;5000608;28;20046;-74
2022/05/13 04:42:50;;;;;;;10.25;1.42;;;;;;;9.89;62.60;98308.94;4980803;28;20631;-74
2022/05/13 04:45:24;;;;;;;8.55;1.38;;;;;;;9.86;62.45;98317.75;4979940;28;20054;-74
2022/05/13 04:50:40;;;;;;;8.30;2.38;;;;;;;10.17;62.27;98314.34;4985114;28;20535;-74
2022/05/13 04:53:08;;;;;;;11.93;1.88;;;;;;;10.27;63.16;98316.03;4990193;28;20467;-74
2022/05/13 04:55:34;;;;;;;9.02;1.80;;;;;;;10.49;62.44;98313.31;4997967;28;20049;-73
2022/05/13 04:58:01;;;;;;;7.10;2.10;;;;;;;10.58;62.86;98307.13;5017266;28;20049;-74
2022/05/13 05:00:28;;;;;;;6.28;1.80;;;;;;;10.56;59.99;98326.56;5015959;28;20049;-74
2022/05/13 05:02:59;;;;;;;7.72;1.70;;;;;;;10.39;61.28;98308.09;4982365;28;20045;-73
2022/05/13 05:05:25;;;;;;;9.23;2.00;;;;;;;10.22;62.34;98327.88;4998521;28;20053;-73
2022/05/13 05:07:52;;;;;;;9.45;1.55;;;;;;;10.27;63.68;98321.50;4981110;28;20683;-73
2022/05/13 05:10:21;;;;;;;8.00;1.80;;;;;;;10.50;61.77;98325.06;5004067;28;20049;-73
2022/05/13 05:12:49;;;;;;;5.47;1.50;;;;;;;10.60;63.27;98321.28;4996864;28;20137;-73
2022/05/13 05:15:16;;;;;;;5.95;1.60;;;;;;;10.78;61.72;98336.69;4997467;28;20152;-73
2022/05/13 05:17:44;;;;;;;9.30;2.05;;;;;;;10.80;63.56;98327.34;4997968;28;20129;-74
2022/05/13 05:20:11;;;;;;;8.10;1.70;;;;;;;10.89;64.44;98325.50;5000128;28;20140;-74
2022/05/13 05:22:37;;;;;;;5.80;1.63;;;;;;;10.98;60.01;98328.28;4999250;28;20509;-74
2022/05/13 05:25:05;;;;;;;6.45;1.63;;;;;;;10.85;61.74;98338.16;4996590;28;20049;-73
2022/05/13 05:27:35;;;;;;;8.45;1.83;;;;;;;10.72;60.84;98359.81;4998710;28;20041;-73
2022/05/13 05:30:04;;;;;;;13.00;2.55;;;;;;;10.77;60.33;98359.66;4997957;28;20048;-73
2022/05/13 05:32:30;;;;;;;8.77;1.63;;;;;;;10.71;60.11;98349.16;4998949;28;20042;-73
2022/05/13 05:34:58;;;;;;;6.72;1.80;;;;;;;10.95;61.71;98348.03;4999107;28;20320;-74
2022/05/13 05:37:26;;;;;;;11.75;1.90;;;;;;;11.14;61.54;98336.88;5000697;28;20049;-74
2022/05/13 05:39:53;;;;;;;11.32;1.80;;;;;;;11.24;60.10;98341.25;4999850;28;20065;-74
2022/05/13 05:42:20;;;;;;;13.57;2.70;;;;;;;11.29;61.00;98346.59;4999740;28;20046;-74
2022/05/13 05:44:47;;;;;;;13.13;1.85;;;;;;;11.41;59.95;98338.63;5004895;28;20049;-73
2022/05/13 05:47:13;;;;;;;12.68;2.30;;;;;;;11.41;59.01;98349.56;5004748;28;20469;-73
2022/05/13 05:49:39;;;;;;;7.07;1.80;;;;;;;11.25;60.89;98348.38;5002952;28;20201;-73
2022/05/13 05:52:09;;;;;;;5.88;1.48;;;;;;;11.32;59.33;98365.13;5002145;28;20053;-74
2022/05/13 05:57:22;;;;;;;9.13;1.60;;;;;;;11.21;59.85;98348.97;5003911;28;20058;-74
2022/05/13 05:59:48;;;;;;;9.55;2.03;;;;;;;11.40;59.84;98345.22;5017738;28;20050;-73
2022/05/13 06:02:15;;;;;;;6.85;1.73;;;;;;;11.51;59.17;98356.69;5000590;28;20552;-73
2022/05/13 06:04:42;;;;;;;7.18;1.70;;;;;;;11.53;58.55;98350.88;5002468;28;20061;-73
2022/05/13 06:07:11;;;;;;;9.00;1.67;;;;;;;11.43;57.23;98347.31;4985702;28;20060;-74
2022/05/13 06:09:38;;;;;;;11.52;1.65;;;;;;;11.58;56.39;98365.22;5002155;28;20041;-74
2022/05/13 06:12:07;;;;;;;10.57;1.77;;;;;;;11.63;58.20;98358.81;5002015;28;20501;-74
2022/05/13 06:14:34;;;;;;;9.38;1.58;;;;;;;12.01;57.43;98369.22;5003306;28;20077;-73
2022/05/13 06:17:00;;;;;;;9.98;1.80;;;;;;;12.01;58.84;98377.44;5003560;28;20149;-74
2022/05/13 06:19:26;;;;;;;18.00;1.90;;;;;;;11.94;57.04;98357.09;4993898;28;20462;-74
2022/05/13 06:21:53;;;;;;;8.20;1.60;;;;;;;11.96;58.75;98372.09;4994729;28;20124;-74
2022/05/13 06:24:20;;;;;;;5.50;1.60;;;;;;;11.94;58.95;98368.06;5001896;28;20050;-74
2022/05/13 06:26:48;;;;;;;10.38;2.08;;;;;;;12.12;57.71;98352.50;5004533;28;20464;-74
2022/05/13 06:29:15;;;;;;;8.65;2.00;;;;;;;12.08;58.41;98374.25;5013032;28;20551;-73
2022/05/13 06:31:41;;;;;;;11.70;1.50;;;;;;;12.08;57.87;98378.94;4669766;28;9999886;-73
2022/05/13 06:34:08;;;;;;;11.47;1.90;;;;;;;11.95;56.85;98381.44;5007783;28;20551;-74
2022/05/13 06:36:34;;;;;;;10.27;1.60;;;;;;;11.80;57.80;98379.97;5010048;28;20402;-75
2022/05/13 06:39:02;;;;;;;10.05;1.70;;;;;;;11.85;59.60;98388.03;5012838;28;20045;-75
2022/05/13 06:41:30;;;;;;;7.05;1.40;;;;;;;11.88;59.45;98378.38;4998654;28;20049;-75
2022/05/13 06:43:56;;;;;;;10.45;2.00;;;;;;;11.96;59.51;98385.00;5012137;28;20049;-73
2022/05/13 06:46:22;;;;;;;16.17;1.90;;;;;;;12.04;59.97;98381.50;4995490;28;20407;-74
2022/05/13 06:48:50;;;;;;;11.90;1.77;;;;;;;12.10;58.12;98393.13;5010749;28;20128;-73
2022/05/13 06:51:17;;;;;;;12.57;1.80;;;;;;;11.89;58.10;98378.03;5020440;28;20048;-75
2022/05/13 06:53:43;;;;;;;8.85;1.55;;;;;;;11.81;58.28;98403.50;5023393;28;20045;-75
2022/05/13 06:56:09;;;;;;;15.60;1.73;;;;;;;11.75;59.26;98380.09;5016740;28;20514;-73
2022/05/13 06:58:38;;;;;;;9.00;1.70;;;;;;;11.82;60.63;98387.84;4992280;28;20072;-74
2022/05/13 07:01:04;;;;;;;13.93;1.75;;;;;;;12.00;60.11;98397.72;4994929;28;20069;-74
2022/05/13 07:03:30;;;;;;;10.02;2.17;;;;;;;12.04;56.21;98408.88;5021495;28;20116;-73
2022/05/13 07:05:57;;;;;;;20.52;2.00;;;;;;;11.99;58.84;98398.06;5007724;28;20544;-74
2022/05/13 07:08:23;;;;;;;8.65;1.92;;;;;;;12.06;58.14;98406.63;5024232;28;20050;-74
2022/05/13 07:10:49;;;;;;;6.68;1.73;;;;;;;12.18;58.05;98384.13;5008097;28;20437;-73
2022/05/13 07:13:15;;;;;;;12.98;1.95;;;;;;;12.37;57.57;98391.22;5007849;28;20112;-74
2022/05/13 07:15:43;;;;;;;11.23;1.70;;;;;;;12.42;56.42;98380.91;5006943;28;20144;-74
2022/05/13 07:18:10;;;;;;;8.55;1.50;;;;;;;12.18;58.00;98401.34;5008848;28;20050;-73
2022/05/13 07:20:36;;;;;;;5.05;1.52;;;;;;;12.16;57.85;98402.78;5000355;28;20052;-73
2022/05/13 07:23:03;;;;;;;6.38;1.60;;;;;;;12.53;55.44;98399.75;5008647;28;20064;-73
2022/05/13 07:25:31;;;;;;;10.43;1.80;;;;;;;12.80;56.63;98389.59;5013917;28;20038;-73
2022/05/13 07:27:57;;;;;;;15.02;1.58;;;;;;;13.18;55.43;98397.94;5008009;28;20261;-75
2022/05/13 07:30:23;;;;;;;16.30;1.95;;;;;;;13.12;52.40;98390.19;5009192;28;20046;-75
2022/05/13 07:32:52;;;;;;;14.43;1.92;;;;;;;13.03;55.12;98390.22;5007488;28;20046;-75
2022/05/13 07:35:19;;;;;;;6.75;1.85;;;;;;;13.16;54.91;98388.41;5003379;28;20053;-75
2022/05/13 07:37:45;;;;;;;7.40;1.92;;;;;;;13.57;56.25;98395.25;5022243;28;20081;-75
2022/05/13 07:42:57;;;;;;;13.80;1.83;;;;;;;13.67;50.69;98416.06;5006172;28;20057;-74
2022/05/13 07:45:24;;;;;;;14.73;2.20;;;;;;;13.67;52.85;98396.03;5012252;28;20544;-73
2022/05/13 07:47:51;;;;;;;9.73;1.70;;;;;;;13.39;51.77;98410.16;5028839;28;20056;-74
2022/05/13 07:50:17;;;;;;;;;;;;;;;13.37;55.07;98407.72;5005122;28;20309;-73
2022/05/13 07:52:43;;;;;;;16.50;1.80;;;;;;;13.69;51.78;98405.53;5007868;28;20320;-74
2022/05/13 07:55:11;;;;;;;4.90;1.60;;;;;;;13.79;52.79;98407.13;5011013;28;20144;-75
2022/05/13 07:57:39;;;;;;;7.10;1.30;;;;;;;13.94;51.16;98364.56;5015274;28;20263;-75
2022/05/13 08:00:26;;;;;;;7.72;1.50;;;;;;;13.99;47.43;98377.31;5002772;28;20049;-75
2022/05/13 08:02:56;;;;;;;7.28;1.60;;;;;;;14.82;50.82;98388.66;5004958;28;20509;-75
2022/05/13 08:05:22;;;;;;;9.60;1.63;;;;;;;15.35;49.24;98401.09;5004148;28;20049;-75
2022/05/13 08:07:56;;;;;;;8.27;1.70;;;;;;;14.97;48.12;98383.66;5010227;28;20137;-75
2022/05/13 08:10:22;;;;;;;8.40;1.40;;;;;;;14.35;48.26;98381.41;4999519;28;20046;-73
2022/05/13 08:12:48;;;;;;;6.45;1.50;;;;;;;14.00;50.41;98376.16;5004330;28;20069;-74
2022/05/13 08:15:15;;;;;;;14.07;1.55;;;;;;;14.50;49.86;98380.00;5004783;28;20075;-74
2022/05/13 08:17:41;;;;;;;8.70;1.60;;;;;;;14.95;47.91;98388.72;5005976;28;20104;-74
2022/05/13 08:20:10;;;;;;;12.00;1.50;;;;;;;14.85;50.38;98381.69;5006589;28;20061;-74
2022/05/13 08:22:36;;;;;;;12.80;1.48;;;;;;;15.00;50.16;98383.00;5005597;28;20474;-74
2022/05/13 08:25:03;;;;;;;5.78;1.27;;;;;;;14.72;46.42;98405.59;5004729;28;20045;-74
2022/05/13 08:27:32;;;;;;;4.43;1.30;;;;;;;14.39;48.90;98389.81;5001847;28;20475;-74
2022/05/13 08:29:58;;;;;;;10.10;1.50;;;;;;;15.19;48.19;98396.25;5005060;28;20874;-73
2022/05/13 08:32:25;;;;;;;8.80;1.58;;;;;;;15.83;47.65;98393.25;5005184;28;20140;-73
2022/05/13 08:34:51;;;;;;;9.00;1.35;;;;;;;15.93;46.57;98375.47;5024667;28;20072;-74
2022/05/13 08:37:18;;;;;;;6.50;1.15;;;;;;;15.39;47.05;98397.31;5005797;28;20136;-73
2022/05/13 08:39:44;;;;;;;;;;;;;;;15.12;49.67;98390.50;5007786;28;20151;-74
2022/05/13 08:42:18;;;;;;;5.50;1.42;;;;;;;15.50;44.55;98380.38;5010334;28;20391;-74
2022/05/13 08:44:44;;;;;;;10.20;1.63;;;;;;;15.69;44.91;98399.88;4985587;28;20473;-74
2022/05/13 08:47:17;;;;;;;14.30;1.50;;;;;;;15.62;47.01;98391.41;5005095;28;20057;-74
2022/05/13 08:49:49;;;;;;;7.78;1.27;;;;;;;15.22;46.49;98372.75;5005501;28;20063;-73
2022/05/13 08:55:18;;;;;;;7.28;1.33;;;;;;;15.35;46.37;98368.88;5005024;28;20089;-74
2022/05/13 08:57:47;;;;;;;4.18;1.58;;;;;;;15.17;43.99;98388.34;4997982;28;20053;-74
2022/05/13 09:00:19;;;;;;;12.05;1.30;;;;;;;15.73;45.37;98373.25;5006121;28;20175;-73
2022/05/13 09:02:52;;;;;;;4.45;1.30;;;;;;;15.29;45.99;98372.97;5006988;28;20574;-74
2022/05/13 09:05:25;;;;;;;3.45;1.27;;;;;;;14.79;43.72;98378.34;5007155;28;20077;-74
2022/05/13 09:07:54;;;;;;;4.90;1.52;;;;;;;14.51;47.03;98392.59;5006995;28;20452;-73
2022/05/13 09:10:21;;;;;;;9.98;1.60;;;;;;;14.54;47.97;98399.38;5007363;28;20148;-74
2022/05/13 09:12:54;;;;;;;9.25;1.33;;;;;;;14.60;47.06;98393.34;5006191;28;20054;-74
2022/05/13 09:15:25;;;;;;;4.55;1.20;;;;;;;14.80;46.18;98379.94;5006754;28;20072;-74
2022/05/13 09:18:01;;;;;;;8.88;1.25;;;;;;;14.86;45.14;98399.81;5003746;28;20058;-74
2022/05/13 09:20:27;;;;;;;6.20;1.20;;;;;;;14.52;43.30;98391.50;5003724;28;20029;-74
2022/05/13 09:23:01;;;;;;;4.70;1.20;;;;;;;14.43;45.73;98383.28;4997788;28;20081;-74
2022/05/13 09:25:35;;;;;;;7.63;1.27;;;;;;;14.67;46.80;98389.25;4988978;28;20049;-74
2022/05/13 09:28:11;;;;;;;5.07;1.00;;;;;;;14.94;46.34;98387.09;5006372;28;20132;-74
2022/05/13 09:30:41;;;;;;;3.88;1.10;;;;;;;14.78;42.62;98367.69;5001500;28;20065;-74
2022/05/13 09:33:22;;;;;;;5.75;1.13;;;;;;;14.52;45.91;98391.50;4995003;28;20045;-73
2022/05/13 09:35:50;;;;;;;12.00;1.55;;;;;;;14.83;45.03;98379.28;4995493;28;20038;-73
2022/05/13 09:38:21;;;;;;;8.57;1.13;;;;;;;15.74;45.49;98388.63;5002951;28;20049;-74
2022/05/13 09:40:59;;;;;;;9.48;1.40;;;;;;;16.15;42.71;98387.97;5001128;28;20042;-74
2022/05/13 09:43:37;;;;;;;7.95;1.70;;;;;;;17.24;43.81;98385.56;4993425;28;20281;-74
2022/05/13 09:46:09;;;;;;;4.18;1.08;;;;;;;16.47;41.09;98382.63;4996584;28;20045;-74
2022/05/13 09:48:37;;;;;;;11.73;1.45;;;;;;;15.74;44.10;98391.38;4992129;28;20109;-74
2022/05/13 09:51:22;;;;;;;12.60;1.65;;;;;;;15.42;43.97;98406.88;4997572;28;20056;-74
2022/05/13 09:54:03;;;;;;;6.00;1.45;;;;;;;15.36;45.11;98397.19;4998661;28;20053;-74
2022/05/13 09:56:36;;;;;;;6.82;1.48;;;;;;;15.28;43.38;98396.97;4991166;28;20042;-74
2022/05/13 09:59:05;;;;;;;4.03;1.58;;;;;;;15.32;45.55;98402.59;5004943;28;20508;-74
2022/05/13 10:01:31;;;;;;;5.25;1.23;;;;;;;15.40;40.53;98389.88;5003982;28;20521;-75
2022/05/13 10:04:08;;;;;;;4.88;1.10;;;;;;;15.26;44.04;98388.25;4991362;28;20512;-74
2022/05/13 10:06:36;;;;;;;7.80;1.27;;;;;;;15.21;44.84;98399.44;4988694;28;20104;-73
2022/05/13 10:14:45;;;;;;;10.98;1.60;;;;;;;15.09;43.00;98411.25;5006278;28;20065;-74
2022/05/13 10:17:15;;;;;;;8.85;1.20;;;;;;;15.07;42.41;98416.28;5023808;28;20048;-73
2022/05/13 10:19:46;;;;;;;8.70;1.30;;;;;;;14.90;45.40;98408.97;5023264;28;20399;-72
2022/05/13 10:22:20;;;;;;;2.33;0.90;;;;;;;15.02;43.33;98408.25;4998201;28;20061;-73
2022/05/13 10:24:52;;;;;;;7.57;1.20;;;;;;;15.00;43.50;98397.56;5004659;28;20140;-72
2022/05/13 10:27:26;;;;;;;5.45;1.17;;;;;;;15.00;45.23;98383.00;5008321;28;20137;-72
2022/05/13 10:29:58;;;;;;;6.45;1.40;;;;;;;15.08;45.02;98408.84;5003741;28;20528;-73
2022/05/13 10:32:33;;;;;;;9.80;1.35;;;;;;;15.34;42.61;98408.56;5016917;28;20108;-74
2022/05/13 10:35:05;;;;;;;8.15;1.50;;;;;;;15.41;41.77;98408.00;5007138;28;20061;-74
2022/05/13 10:37:39;;;;;;;9.18;1.20;;;;;;;15.38;42.44;98409.47;5024335;28;20057;-74
2022/05/13 10:40:12;;;;;;;12.57;1.30;;;;;;;15.40;45.23;98407.19;5009233;28;20548;-74
2022/05/13 10:42:42;;;;;;;6.25;1.98;;;;;;;16.23;41.01;98408.28;5008377;28;20069;-73
2022/05/13 10:45:17;;;;;;;5.22;1.75;;;;;;;17.92;40.87;98408.56;5009763;28;20061;-74
2022/05/13 10:47:48;;;;;;;5.10;1.70;;;;;;;19.17;36.06;98407.31;5013020;28;20059;-74
2022/05/13 10:50:16;;;;;;;8.13;1.73;;;;;;;19.80;38.07;98402.47;5003013;28;20057;-74
2022/05/13 10:52:54;;;;;;;8.60;1.70;;;;;;;20.21;38.20;98402.75;5009815;28;20068;-74
2022/05/13 10:55:32;;;;;;;6.53;1.60;;;;;;;20.37;37.86;98407.31;5012872;28;20053;-74
2022/05/13 10:58:16;;;;;;;7.18;1.75;;;;;;;21.00;38.54;98377.19;5016336;28;20045;-74
2022/05/13 11:00:48;;;;;;;7.03;1.98;;;;;;;21.51;35.83;98369.34;5024063;28;20543;-74
2022/05/13 11:03:37;;;;;;;6.18;1.77;;;;;;;21.06;29.53;98361.00;5016867;28;20076;-74
2022/05/13 11:06:29;;;;;;;15.02;1.35;;;;;;;20.53;35.43;98382.97;4988603;28;20065;-74
2022/05/13 11:09:04;;;;;;;7.45;1.45;;;;;;;19.69;35.32;98375.38;5008563;28;20555;-74
2022/05/13 11:11:38;;;;;;;5.07;1.10;;;;;;;19.40;35.81;98374.06;5010259;28;20070;-74
2022/05/13 11:14:26;;;;;;;11.05;1.30;;;;;;;19.53;38.57;98385.81;5023328;28;20107;-73
2022/05/13 11:17:03;;;;;;;13.98;1.40;;;;;;;19.66;36.89;98392.72;5005377;28;20049;-74
2022/05/13 11:19:34;;;;;;;10.25;1.75;;;;;;;21.08;32.39;98387.22;5022230;28;20058;-74
2022/05/13 11:22:11;;;;;;;20.85;1.58;;;;;;;20.27;38.64;98384.59;5014838;28;20045;-74
2022/05/13 11:27:52;;;;;;;12.10;1.85;;;;;;;19.97;36.31;98384.56;5013066;28;20061;-74
2022/05/13 11:30:25;;;;;;;6.40;2.03;;;;;;;21.40;35.69;98397.06;5025851;28;20425;-74
2022/05/13 11:32:56;;;;;;;4.90;1.20;;;;;;;21.67;31.88;98383.03;5005152;28;20042;-73
2022/05/13 11:35:40;;;;;;;8.73;1.23;;;;;;;20.01;38.40;98374.31;5007350;28;20050;-75
2022/05/13 11:38:14;;;;;;;7.75;1.80;;;;;;;19.41;37.44;98375.69;5008767;28;20061;-75
2022/05/13 11:40:49;;;;;;;8.35;1.80;;;;;;;20.60;34.20;98373.94;5007832;28;20053;-74
2022/05/13 11:43:39;;;;;;;10.43;1.75;;;;;;;21.45;33.73;98384.78;5007324;28;20196;-75
2022/05/13 11:46:27;;;;;;;9.27;2.00;;;;;;;21.34;34.07;98362.47;5013135;28;20177;-75
2022/05/13 11:49:01;;;;;;;9.82;2.00;;;;;;;21.86;30.65;98375.63;5008393;28;20267;-74
2022/05/13 11:51:30;;;;;;;13.10;1.80;;;;;;;21.61;27.97;98365.88;4972106;28;20499;-75
2022/05/13 11:54:16;;;;;;;12.43;2.00;;;;;;;21.65;30.19;98354.78;5021513;28;20136;-74
2022/05/13 11:56:46;;;;;;;11.13;1.70;;;;;;;21.44;30.11;98364.53;5007898;28;20049;-73
2022/05/13 11:59:43;;;;;;;13.43;1.98;;;;;;;21.33;30.88;98371.97;5010444;28;20397;-74
2022/05/13 12:02:11;;;;;;;;;;;;;;;20.62;34.03;98363.25;5006668;28;20137;-73
2022/05/13 12:04:58;;;;;;;23.70;2.00;;;;;;;20.00;33.16;98341.41;5007220;28;20277;-72
2022/05/13 12:07:28;;;;;;;17.42;2.28;;;;;;;19.19;32.81;98377.25;5007524;28;20076;-73
2022/05/13 12:09:57;;;;;;;15.30;1.50;;;;;;;17.90;36.03;98368.63;5005514;28;20552;-74
2022/05/13 12:12:38;;;;;;;15.80;1.90;;;;;;;17.13;39.02;98383.28;5007483;28;20276;-73
2022/05/13 12:15:19;;;;;;;18.83;1.60;;;;;;;15.87;47.68;98406.00;5013789;28;20145;-74
2022/05/13 12:17:53;;;;;;;12.32;1.63;;;;;;;13.84;48.49;98384.97;5004743;28;20539;-75